sensor_id;sensor_type;location;lat;lon;timestamp;temperature;humidity
35305;DHT22;26433;48.034;-1.764;2023-04-06T05:03:34;11.10;82.90
35305;DHT22;26433;48.034;-1.764;2023-04-06T05:08:38;11.70;83.60
35305;DHT22;26433;48.034;-1.764;2023-04-06T05:13:42;11.60;84.00
35305;DHT22;26433;48.034;-1.764;2023-04-06T05:18:49;11.60;84.20
35305;DHT22;26433;48.034;-1.764;2023-04-06T05:23:53;11.60;84.30
35305;DHT22;26433;48.034;-1.764;2023-04-06T05:28:58;11.60;84.50
35305;DHT22;26433;48.034;-1.764;2023-04-06T05:34:06;11.60;84.70
35305;DHT22;26433;48.034;-1.764;2023-04-06T05:39:13;11.70;84.60
35305;DHT22;26433;48.034;-1.764;2023-04-06T05:44:17;11.70;84.80
35305;DHT22;26433;48.034;-1.764;2023-04-06T05:49:22;11.80;84.60
35305;DHT22;26433;48.034;-1.764;2023-04-06T05:54:27;11.80;84.00
35305;DHT22;26433;48.034;-1.764;2023-04-06T06:04:39;11.80;84.00
35305;DHT22;26433;48.034;-1.764;2023-04-06T06:09:42;11.90;84.90
35305;DHT22;26433;48.034;-1.764;2023-04-06T06:14:49;11.90;85.10
35305;DHT22;26433;48.034;-1.764;2023-04-06T06:19:55;11.90;85.20
35305;DHT22;26433;48.034;-1.764;2023-04-06T06:30:06;12.00;84.00
35305;DHT22;26433;48.034;-1.764;2023-04-06T06:35:14;12.10;84.30
35305;DHT22;26433;48.034;-1.764;2023-04-06T06:40:18;12.20;85.40
35305;DHT22;26433;48.034;-1.764;2023-04-06T06:50:30;12.50;84.10
35305;DHT22;26433;48.034;-1.764;2023-04-06T07:00:38;12.50;84.10
35305;DHT22;26433;48.034;-1.764;2023-04-06T07:05:47;12.50;85.20
35305;DHT22;26433;48.034;-1.764;2023-04-06T07:10:56;12.50;85.80
35305;DHT22;26433;48.034;-1.764;2023-04-06T07:15:59;12.50;86.20
35305;DHT22;26433;48.034;-1.764;2023-04-06T07:21:05;12.50;86.30
35305;DHT22;26433;48.034;-1.764;2023-04-06T07:36:20;12.80;85.70
35305;DHT22;26433;48.034;-1.764;2023-04-06T07:41:24;12.90;86.40
35305;DHT22;26433;48.034;-1.764;2023-04-06T07:46:28;13.00;86.30
35305;DHT22;26433;48.034;-1.764;2023-04-06T07:51:35;13.00;86.40
35305;DHT22;26433;48.034;-1.764;2023-04-06T08:01:43;13.10;86.30
35305;DHT22;26433;48.034;-1.764;2023-04-06T08:06:48;13.30;86.30
35305;DHT22;26433;48.034;-1.764;2023-04-06T08:22:01;13.60;86.40
35305;DHT22;26433;48.034;-1.764;2023-04-06T08:37:15;14.20;85.40
35305;DHT22;26433;48.034;-1.764;2023-04-06T08:42:20;14.20;86.00
35305;DHT22;26433;48.034;-1.764;2023-04-06T08:52:32;14.40;85.10
35305;DHT22;26433;48.034;-1.764;2023-04-06T08:57:36;14.70;84.80
35305;DHT22;26433;48.034;-1.764;2023-04-06T09:02:43;14.70;85.30
35305;DHT22;26433;48.034;-1.764;2023-04-06T09:07:48;14.90;85.10
35305;DHT22;26433;48.034;-1.764;2023-04-06T09:13:02;14.90;86.00
35305;DHT22;26433;48.034;-1.764;2023-04-06T09:18:06;14.90;86.50
35305;DHT22;26433;48.034;-1.764;2023-04-06T09:23:19;14.90;85.70
35305;DHT22;26433;48.034;-1.764;2023-04-06T09:38:32;14.70;87.70
35305;DHT22;26433;48.034;-1.764;2023-04-06T09:53:49;14.70;88.00
35305;DHT22;26433;48.034;-1.764;2023-04-06T09:58:57;14.70;88.40
35305;DHT22;26433;48.034;-1.764;2023-04-06T10:04:13;14.70;89.20
35305;DHT22;26433;48.034;-1.764;2023-04-06T10:09:25;14.70;89.40
35305;DHT22;26433;48.034;-1.764;2023-04-06T10:14:31;14.70;89.90
35305;DHT22;26433;48.034;-1.764;2023-04-06T10:19:46;14.70;90.10
35305;DHT22;26433;48.034;-1.764;2023-04-06T10:24:54;14.80;90.20
35305;DHT22;26433;48.034;-1.764;2023-04-06T10:30:02;14.90;90.30
35305;DHT22;26433;48.034;-1.764;2023-04-06T10:35:09;15.00;90.30
35305;DHT22;26433;48.034;-1.764;2023-04-06T10:40:21;15.10;90.10
35305;DHT22;26433;48.034;-1.764;2023-04-06T10:45:26;15.10;90.60
35305;DHT22;26433;48.034;-1.764;2023-04-06T10:55:43;15.10;90.90
35305;DHT22;26433;48.034;-1.764;2023-04-06T11:00:49;14.90;91.50
35305;DHT22;26433;48.034;-1.764;2023-04-06T11:05:53;14.90;91.80
35305;DHT22;26433;48.034;-1.764;2023-04-06T11:11:09;15.00;92.20
35305;DHT22;26433;48.034;-1.764;2023-04-06T11:16:14;15.20;92.10
35305;DHT22;26433;48.034;-1.764;2023-04-06T11:26:23;15.80;91.10
35305;DHT22;26433;48.034;-1.764;2023-04-06T11:31:27;15.80;91.30
35305;DHT22;26433;48.034;-1.764;2023-04-06T11:36:31;16.10;90.80
35305;DHT22;26433;48.034;-1.764;2023-04-06T11:41:37;16.10;90.60
35305;DHT22;26433;48.034;-1.764;2023-04-06T11:51:46;15.70;91.60
35305;DHT22;26433;48.034;-1.764;2023-04-06T11:56:51;15.60;92.60
35305;DHT22;26433;48.034;-1.764;2023-04-06T12:06:59;15.60;91.80
35305;DHT22;26433;48.034;-1.764;2023-04-06T12:12:04;15.30;93.40
35305;DHT22;26433;48.034;-1.764;2023-04-06T12:17:08;15.20;93.60
35305;DHT22;26433;48.034;-1.764;2023-04-06T12:27:17;15.40;92.80
35305;DHT22;26433;48.034;-1.764;2023-04-06T12:32:21;15.40;93.00
35305;DHT22;26433;48.034;-1.764;2023-04-06T12:37:25;15.50;92.90
35305;DHT22;26433;48.034;-1.764;2023-04-06T12:42:31;15.50;92.80
35305;DHT22;26433;48.034;-1.764;2023-04-06T12:47:35;15.70;92.40
35305;DHT22;26433;48.034;-1.764;2023-04-06T12:52:40;15.80;92.00
35305;DHT22;26433;48.034;-1.764;2023-04-06T12:57:45;15.90;91.80
35305;DHT22;26433;48.034;-1.764;2023-04-06T13:02:49;15.90;92.10
35305;DHT22;26433;48.034;-1.764;2023-04-06T13:12:58;16.40;91.10
35305;DHT22;26433;48.034;-1.764;2023-04-06T13:18:02;16.80;90.10
35305;DHT22;26433;48.034;-1.764;2023-04-06T13:23:06;17.10;88.60
35305;DHT22;26433;48.034;-1.764;2023-04-06T13:28:11;17.30;86.80
35305;DHT22;26433;48.034;-1.764;2023-04-06T13:33:15;17.20;87.30
35305;DHT22;26433;48.034;-1.764;2023-04-06T13:43:24;16.80;88.30
35305;DHT22;26433;48.034;-1.764;2023-04-06T13:48:29;16.70;88.80
35305;DHT22;26433;48.034;-1.764;2023-04-06T13:58:38;16.90;87.70
35305;DHT22;26433;48.034;-1.764;2023-04-06T14:03:42;17.10;87.20
35305;DHT22;26433;48.034;-1.764;2023-04-06T14:08:49;17.30;85.40
35305;DHT22;26433;48.034;-1.764;2023-04-06T14:13:55;17.40;84.30
35305;DHT22;26433;48.034;-1.764;2023-04-06T14:19:00;17.40;84.00
35305;DHT22;26433;48.034;-1.764;2023-04-06T14:24:04;17.30;84.10
35305;DHT22;26433;48.034;-1.764;2023-04-06T14:29:09;17.40;83.10
35305;DHT22;26433;48.034;-1.764;2023-04-06T14:34:13;17.30;83.60
35305;DHT22;26433;48.034;-1.764;2023-04-06T14:39:17;17.40;83.00
35305;DHT22;26433;48.034;-1.764;2023-04-06T14:44:22;17.40;82.40
35305;DHT22;26433;48.034;-1.764;2023-04-06T14:49:26;17.50;81.80
35305;DHT22;26433;48.034;-1.764;2023-04-06T14:54:29;17.60;81.30
35305;DHT22;26433;48.034;-1.764;2023-04-06T14:59:34;17.60;80.80
35305;DHT22;26433;48.034;-1.764;2023-04-06T15:04:41;17.60;80.50
35305;DHT22;26433;48.034;-1.764;2023-04-06T15:14:50;17.60;78.90
35305;DHT22;26433;48.034;-1.764;2023-04-06T15:19:53;17.60;79.20
35305;DHT22;26433;48.034;-1.764;2023-04-06T15:24:57;17.50;78.80
35305;DHT22;26433;48.034;-1.764;2023-04-06T15:30:03;17.50;78.80
35305;DHT22;26433;48.034;-1.764;2023-04-06T15:35:11;17.40;79.00
35305;DHT22;26433;48.034;-1.764;2023-04-06T15:40:14;17.50;78.50
35305;DHT22;26433;48.034;-1.764;2023-04-06T15:45:19;17.50;77.10
35305;DHT22;26433;48.034;-1.764;2023-04-06T15:50:23;17.50;77.80
35305;DHT22;26433;48.034;-1.764;2023-04-06T16:00:32;17.50;76.80
35305;DHT22;26433;48.034;-1.764;2023-04-06T16:05:36;17.50;77.10
35305;DHT22;26433;48.034;-1.764;2023-04-06T16:10:59;17.70;76.60
35305;DHT22;26433;48.034;-1.764;2023-04-06T16:16:05;17.70;75.80
35305;DHT22;26433;48.034;-1.764;2023-04-06T16:21:13;17.80;75.60
35305;DHT22;26433;48.034;-1.764;2023-04-06T16:26:17;17.80;75.00
35305;DHT22;26433;48.034;-1.764;2023-04-06T16:31:23;17.90;74.70
35305;DHT22;26433;48.034;-1.764;2023-04-06T16:36:29;18.00;74.00
35305;DHT22;26433;48.034;-1.764;2023-04-06T16:41:33;17.80;74.00
35305;DHT22;26433;48.034;-1.764;2023-04-06T16:46:41;17.70;74.30
35305;DHT22;26433;48.034;-1.764;2023-04-06T16:51:45;17.60;74.80
35305;DHT22;26433;48.034;-1.764;2023-04-06T16:56:51;17.60;74.70
35305;DHT22;26433;48.034;-1.764;2023-04-06T17:01:55;17.60;73.80
35305;DHT22;26433;48.034;-1.764;2023-04-06T17:12:04;16.90;81.50
35305;DHT22;26433;48.034;-1.764;2023-04-06T17:17:09;17.00;74.50
35305;DHT22;26433;48.034;-1.764;2023-04-06T17:22:12;16.30;83.90
35305;DHT22;26433;48.034;-1.764;2023-04-06T17:32:29;16.20;75.70
35305;DHT22;26433;48.034;-1.764;2023-04-06T17:42:37;16.10;75.40
35305;DHT22;26433;48.034;-1.764;2023-04-06T17:47:42;16.00;75.10
35305;DHT22;26433;48.034;-1.764;2023-04-06T18:02:56;15.80;74.90
35305;DHT22;26433;48.034;-1.764;2023-04-06T18:18:09;15.60;75.40
35305;DHT22;26433;48.034;-1.764;2023-04-06T18:23:13;15.30;85.10
35305;DHT22;26433;48.034;-1.764;2023-04-06T18:28:16;15.50;85.10
35305;DHT22;26433;48.034;-1.764;2023-04-06T18:33:21;15.40;75.40
35305;DHT22;26433;48.034;-1.764;2023-04-06T18:38:25;15.50;85.30
35305;DHT22;26433;48.034;-1.764;2023-04-06T18:43:29;15.20;85.20
35305;DHT22;26433;48.034;-1.764;2023-04-06T18:48:33;15.20;75.80
35305;DHT22;26433;48.034;-1.764;2023-04-06T18:58:42;14.40;86.70
35305;DHT22;26433;48.034;-1.764;2023-04-06T19:03:46;14.60;76.70
35305;DHT22;26433;48.034;-1.764;2023-04-06T19:13:55;14.20;88.60
35305;DHT22;26433;48.034;-1.764;2023-04-06T19:19:00;14.20;78.20
35305;DHT22;26433;48.034;-1.764;2023-04-06T19:29:08;14.10;89.60
35305;DHT22;26433;48.034;-1.764;2023-04-06T19:34:13;13.70;89.80
35305;DHT22;26433;48.034;-1.764;2023-04-06T19:39:19;13.50;78.50
35305;DHT22;26433;48.034;-1.764;2023-04-06T19:44:23;13.30;90.10
35305;DHT22;26433;48.034;-1.764;2023-04-06T19:49:28;13.60;90.20
35305;DHT22;26433;48.034;-1.764;2023-04-06T20:04:42;13.10;79.00
35305;DHT22;26433;48.034;-1.764;2023-04-06T20:09:45;13.00;79.90
35305;DHT22;26433;48.034;-1.764;2023-04-06T20:14:49;12.90;80.10
35305;DHT22;26433;48.034;-1.764;2023-04-06T20:19:54;12.70;80.30
35305;DHT22;26433;48.034;-1.764;2023-04-06T20:30:02;12.50;80.40
35305;DHT22;26433;48.034;-1.764;2023-04-06T20:35:08;12.40;81.00
35305;DHT22;26433;48.034;-1.764;2023-04-06T20:40:12;12.30;81.10
35305;DHT22;26433;48.034;-1.764;2023-04-06T20:45:16;12.30;81.00
35305;DHT22;26433;48.034;-1.764;2023-04-06T20:50:22;12.30;80.80
35305;DHT22;26433;48.034;-1.764;2023-04-06T20:55:26;12.20;80.90
35305;DHT22;26433;48.034;-1.764;2023-04-06T21:00:29;11.90;89.00
35305;DHT22;26433;48.034;-1.764;2023-04-06T21:05:34;12.30;90.80
35305;DHT22;26433;48.034;-1.764;2023-04-06T21:20:48;11.30;91.70
35305;DHT22;26433;48.034;-1.764;2023-04-06T21:30:58;11.20;92.70
35305;DHT22;26433;48.034;-1.764;2023-04-06T21:36:07;11.10;93.10
35305;DHT22;26433;48.034;-1.764;2023-04-06T21:41:10;10.90;93.10
35305;DHT22;26433;48.034;-1.764;2023-04-06T21:51:20;11.10;82.60
35305;DHT22;26433;48.034;-1.764;2023-04-06T21:56:25;11.10;82.60
35305;DHT22;26433;48.034;-1.764;2023-04-06T22:01:28;11.00;92.90
35305;DHT22;26433;48.034;-1.764;2023-04-06T22:06:35;10.80;92.90
35305;DHT22;26433;48.034;-1.764;2023-04-06T22:11:39;10.70;93.10
35305;DHT22;26433;48.034;-1.764;2023-04-06T22:16:42;10.50;93.60
35305;DHT22;26433;48.034;-1.764;2023-04-06T22:21:48;10.80;93.90
35305;DHT22;26433;48.034;-1.764;2023-04-06T22:26:52;10.40;94.10
